createdAt,value
2022-12-07T00:01:23.869Z,7.16
2022-12-07T00:03:53.584Z,7.14
2022-12-07T00:06:21.682Z,7.23
2022-12-07T00:08:49.354Z,7.23
2022-12-07T00:11:18.931Z,7.14
2022-12-07T00:13:46.610Z,7.10
2022-12-07T00:16:16.559Z,7.11
2022-12-07T00:18:44.345Z,7.05
2022-12-07T00:21:14.893Z,7.10
2022-12-07T00:23:43.610Z,7.10
2022-12-07T00:26:12.197Z,7.18
2022-12-07T00:28:39.645Z,7.24
2022-12-07T00:31:12.915Z,7.32
2022-12-07T00:33:40.030Z,7.20
2022-12-07T00:36:10.132Z,7.17
2022-12-07T00:38:39.116Z,7.18
2022-12-07T00:41:08.965Z,7.18
2022-12-07T00:43:35.929Z,7.21
2022-12-07T00:46:02.939Z,7.21
2022-12-07T00:48:30.059Z,7.06
2022-12-07T00:50:57.071Z,7.07
2022-12-07T00:53:24.797Z,7.00
2022-12-07T00:55:51.866Z,6.99
2022-12-07T00:58:18.821Z,7.15
2022-12-07T01:00:45.858Z,7.08
2022-12-07T01:03:15.330Z,7.16
2022-12-07T01:05:50.902Z,7.11
2022-12-07T01:08:17.911Z,7.20
2022-12-07T01:10:44.878Z,7.03
2022-12-07T01:13:12.145Z,7.07
2022-12-07T01:15:43.865Z,7.09
2022-12-07T01:18:11.339Z,7.04
2022-12-07T01:20:38.546Z,7.07
2022-12-07T01:23:05.603Z,7.04
2022-12-07T01:25:32.501Z,7.03
2022-12-07T01:27:59.554Z,6.93
2022-12-07T01:30:26.665Z,7.01
2022-12-07T01:32:53.754Z,6.86
2022-12-07T01:35:20.785Z,6.89
2022-12-07T01:37:47.682Z,6.93
2022-12-07T01:40:14.627Z,6.97
2022-12-07T01:42:41.554Z,6.91
2022-12-07T01:45:47.139Z,7.06
2022-12-07T01:48:18.202Z,6.82
2022-12-07T01:50:49.382Z,6.85
2022-12-07T01:53:17.544Z,6.83
2022-12-07T01:55:48.149Z,6.91
2022-12-07T01:58:16.446Z,6.86
2022-12-07T02:00:43.458Z,6.90
2022-12-07T02:03:17.001Z,6.77
2022-12-07T02:05:45.284Z,6.86
2022-12-07T02:08:14.178Z,6.84
2022-12-07T02:10:41.482Z,6.93
2022-12-07T02:13:20.362Z,6.89
2022-12-07T02:16:01.381Z,6.89
2022-12-07T02:18:40.880Z,6.90
2022-12-07T02:21:24.423Z,6.97
2022-12-07T02:24:28.586Z,6.96
2022-12-07T02:27:20.018Z,6.96
2022-12-07T02:29:53.854Z,6.94
2022-12-07T02:32:42.522Z,6.95
2022-12-07T02:35:36.784Z,7.09
2022-12-07T02:38:24.037Z,7.28
2022-12-07T02:41:14.703Z,7.21
2022-12-07T02:43:47.100Z,7.26
2022-12-07T02:46:18.697Z,7.28
2022-12-07T02:48:47.650Z,7.48
2022-12-07T02:51:14.666Z,7.46
2022-12-07T02:53:43.859Z,7.48
2022-12-07T02:56:29.473Z,7.42
2022-12-07T02:59:17.260Z,7.32
2022-12-07T03:01:59.882Z,7.25
2022-12-07T03:05:00.494Z,7.23
2022-12-07T03:07:36.131Z,7.23
2022-12-07T03:10:21.048Z,7.43
2022-12-07T03:13:26.746Z,7.38
2022-12-07T03:16:11.833Z,7.39
2022-12-07T03:18:56.714Z,7.51
2022-12-07T03:21:32.831Z,7.65
2022-12-07T03:24:04.387Z,7.41
2022-12-07T03:26:42.954Z,7.54
2022-12-07T03:29:14.722Z,7.45
2022-12-07T03:31:46.489Z,7.72
2022-12-07T03:34:23.082Z,7.58
2022-12-07T03:37:19.448Z,7.53
2022-12-07T03:39:58.896Z,7.48
2022-12-07T03:42:26.424Z,7.46
2022-12-07T03:44:53.411Z,7.51
2022-12-07T03:47:49.530Z,7.36
2022-12-07T03:50:42.902Z,7.36
2022-12-07T03:53:19.445Z,7.27
2022-12-07T03:55:47.512Z,7.18
2022-12-07T03:58:20.285Z,7.15
2022-12-07T04:00:48.488Z,7.14
2022-12-07T04:03:15.550Z,7.16
2022-12-07T04:05:43.515Z,7.15
2022-12-07T04:08:10.773Z,7.08
2022-12-07T04:10:37.781Z,7.20
2022-12-07T04:13:04.864Z,6.87
2022-12-07T04:15:31.968Z,6.79
2022-12-07T04:17:58.859Z,6.80
2022-12-07T04:20:26.082Z,6.88
2022-12-07T04:22:53.125Z,6.90
2022-12-07T04:25:20.038Z,6.66
2022-12-07T04:27:46.999Z,6.69
2022-12-07T04:30:13.927Z,6.71
2022-12-07T04:32:40.902Z,6.76
2022-12-07T04:35:08.359Z,6.74
2022-12-07T04:37:35.305Z,6.76
2022-12-07T04:40:02.527Z,6.79
2022-12-07T04:42:29.702Z,6.97
2022-12-07T04:44:56.583Z,6.98
2022-12-07T04:47:23.451Z,7.05
2022-12-07T04:49:50.367Z,6.99
2022-12-07T04:52:17.232Z,6.97
2022-12-07T04:54:44.113Z,7.11
2022-12-07T04:57:11.070Z,7.03
2022-12-07T04:59:41.029Z,6.99
2022-12-07T05:02:12.173Z,7.06
2022-12-07T05:04:39.183Z,6.96
2022-12-07T05:07:06.051Z,7.00
2022-12-07T05:09:33.018Z,7.03
2022-12-07T05:11:59.877Z,6.81
2022-12-07T05:14:26.917Z,6.68
2022-12-07T05:16:54.650Z,6.83
2022-12-07T05:19:21.782Z,6.77
2022-12-07T05:21:49.375Z,6.76
2022-12-07T05:24:17.990Z,6.66
2022-12-07T05:26:45.893Z,6.71
2022-12-07T05:29:15.455Z,6.67
2022-12-07T05:31:43.354Z,6.68
2022-12-07T05:34:10.887Z,6.58
2022-12-07T05:36:38.796Z,6.62
2022-12-07T05:39:05.916Z,6.58
2022-12-07T05:41:51.460Z,6.79
2022-12-07T05:44:18.414Z,6.83
2022-12-07T05:46:45.399Z,6.82
2022-12-07T05:49:12.281Z,6.87
2022-12-07T05:51:39.226Z,6.64
2022-12-07T05:54:06.223Z,6.70
2022-12-07T05:56:33.218Z,6.65
2022-12-07T05:59:19.071Z,6.72
2022-12-07T06:01:46.155Z,6.69
2022-12-07T06:04:13.226Z,6.76
2022-12-07T06:06:40.319Z,6.77
2022-12-07T06:09:08.041Z,6.70
2022-12-07T06:11:53.762Z,6.80
2022-12-07T06:14:20.690Z,6.69
2022-12-07T06:16:48.999Z,6.64
2022-12-07T06:19:15.980Z,6.78
2022-12-07T06:21:42.951Z,6.79
2022-12-07T06:24:14.310Z,7.01
2022-12-07T06:26:41.757Z,7.00
2022-12-07T06:29:09.440Z,6.88
2022-12-07T06:31:37.803Z,7.13
2022-12-07T06:34:13.268Z,7.18
2022-12-07T06:36:40.481Z,7.22
2022-12-07T06:39:10.175Z,7.27
2022-12-07T06:41:38.006Z,7.48
2022-12-07T06:44:06.248Z,7.43
2022-12-07T06:46:33.747Z,7.53
2022-12-07T06:49:00.786Z,7.53
2022-12-07T06:51:28.099Z,7.46
2022-12-07T06:53:55.023Z,7.35
2022-12-07T06:56:22.079Z,7.59
2022-12-07T06:58:48.940Z,7.34
2022-12-07T07:01:18.797Z,7.65
2022-12-07T07:03:47.202Z,7.60
2022-12-07T07:06:15.200Z,7.86
2022-12-07T07:08:43.060Z,7.76
2022-12-07T07:11:10.819Z,8.10
2022-12-07T07:13:38.429Z,8.27
2022-12-07T07:16:06.523Z,8.32
2022-12-07T07:18:33.604Z,8.21
2022-12-07T07:21:00.613Z,8.10
2022-12-07T07:23:27.786Z,8.18
2022-12-07T07:25:54.794Z,7.99
2022-12-07T07:28:21.704Z,7.99
2022-12-07T07:30:48.675Z,7.85
2022-12-07T07:33:16.218Z,8.01
2022-12-07T07:35:43.155Z,8.29
2022-12-07T07:38:10.199Z,8.26
2022-12-07T07:40:37.929Z,8.18
2022-12-07T07:43:04.890Z,8.21
2022-12-07T07:45:31.836Z,8.37
2022-12-07T07:47:58.800Z,8.45
2022-12-07T07:50:25.702Z,8.88
2022-12-07T07:52:53.164Z,8.64
2022-12-07T07:55:20.449Z,8.58
2022-12-07T07:57:54.203Z,8.55
2022-12-07T08:00:22.400Z,8.57
2022-12-07T08:02:49.332Z,8.59
2022-12-07T08:05:16.845Z,8.65
2022-12-07T08:07:44.559Z,8.69
2022-12-07T08:10:13.261Z,8.96
2022-12-07T08:13:01.873Z,8.86
2022-12-07T08:15:30.816Z,9.27
2022-12-07T08:17:57.877Z,9.23
2022-12-07T08:20:24.930Z,9.33
2022-12-07T08:22:52.036Z,9.41
2022-12-07T08:25:19.185Z,9.11
2022-12-07T08:27:46.233Z,9.19
2022-12-07T08:30:13.292Z,8.79
2022-12-07T08:32:40.292Z,8.91
2022-12-07T08:35:07.518Z,8.63
2022-12-07T08:37:34.810Z,9.06
2022-12-07T08:40:02.124Z,8.93
2022-12-07T08:42:30.983Z,8.77
2022-12-07T08:44:58.461Z,8.76
2022-12-07T08:47:26.404Z,8.97
2022-12-07T08:49:55.450Z,8.76
2022-12-07T08:52:22.899Z,8.74
2022-12-07T08:54:50.257Z,8.84
2022-12-07T08:57:17.544Z,9.01
2022-12-07T08:59:44.487Z,9.17
2022-12-07T09:02:11.411Z,9.14
2022-12-07T09:04:38.410Z,9.18
2022-12-07T09:07:05.757Z,9.30
2022-12-07T09:09:33.022Z,9.56
2022-12-07T09:12:00.107Z,9.70
2022-12-07T09:14:27.172Z,9.67
2022-12-07T09:16:54.083Z,9.67
2022-12-07T09:19:21.200Z,9.85
2022-12-07T09:21:48.124Z,9.99
2022-12-07T09:24:15.206Z,9.85
2022-12-07T09:26:42.157Z,9.93
2022-12-07T09:29:09.053Z,10.09
2022-12-07T09:31:38.387Z,10.04
2022-12-07T09:34:06.847Z,10.21
2022-12-07T09:36:34.496Z,10.24
2022-12-07T09:39:01.768Z,10.19
2022-12-07T09:41:31.395Z,10.06
2022-12-07T09:44:22.999Z,9.95
2022-12-07T10:18:42.378Z,9.28
2022-12-07T10:21:10.112Z,9.62
2022-12-07T10:23:39.435Z,9.54
2022-12-07T10:26:29.611Z,9.85
2022-12-07T10:28:59.919Z,9.97
2022-12-07T10:31:26.954Z,10.19
2022-12-07T10:33:59.414Z,10.03
2022-12-07T10:36:35.852Z,10.36
2022-12-07T10:39:11.674Z,10.65
2022-12-07T10:41:55.622Z,10.60
2022-12-07T10:44:25.253Z,10.49
2022-12-07T10:47:00.922Z,10.30
2022-12-07T10:49:56.705Z,10.21
2022-12-07T10:52:32.338Z,10.34
2022-12-07T10:55:22.402Z,10.28
2022-12-07T10:57:52.165Z,10.52
2022-12-07T11:00:26.585Z,10.70
2022-12-07T11:02:53.530Z,10.77
2022-12-07T11:05:50.601Z,10.68
2022-12-07T11:08:17.422Z,10.80
2022-12-07T11:11:13.489Z,10.91
2022-12-07T11:13:57.326Z,10.50
2022-12-07T11:16:52.940Z,10.41
2022-12-07T11:19:22.768Z,10.59
2022-12-07T11:22:14.414Z,10.73
2022-12-07T11:25:15.085Z,10.81
2022-12-07T11:28:29.774Z,10.86
2022-12-07T11:31:06.031Z,10.81
2022-12-07T11:34:01.427Z,10.87
2022-12-07T11:36:37.118Z,11.09
2022-12-07T11:39:16.715Z,10.86
2022-12-07T11:41:44.296Z,11.16
2022-12-07T11:44:40.873Z,11.02
2022-12-07T11:47:21.515Z,11.08
2022-12-07T11:50:07.524Z,10.56
2022-12-07T11:52:50.251Z,10.75
2022-12-07T11:55:30.583Z,10.83
2022-12-07T11:58:22.681Z,10.79
2022-12-07T12:00:53.423Z,10.60
2022-12-07T12:03:31.450Z,10.47
2022-12-07T12:05:58.711Z,10.29
2022-12-07T12:15:00.065Z,10.44
2022-12-07T12:17:48.074Z,10.24
2022-12-07T12:20:52.377Z,10.39
2022-12-07T12:23:25.482Z,10.25
2022-12-07T12:25:57.112Z,10.25
2022-12-07T12:28:32.664Z,10.27
2022-12-07T12:31:09.594Z,10.42
2022-12-07T12:33:38.402Z,10.41
2022-12-07T12:36:17.281Z,10.65
2022-12-07T12:39:08.211Z,10.46
2022-12-07T12:42:00.933Z,10.73
2022-12-07T12:44:30.533Z,10.39
2022-12-07T12:47:48.844Z,10.46
2022-12-07T12:50:22.438Z,10.59
2022-12-07T12:53:05.939Z,10.59
2022-12-07T12:55:44.702Z,10.61
2022-12-07T12:58:20.576Z,10.64
2022-12-07T13:00:50.144Z,10.57
2022-12-07T13:03:32.928Z,10.60
2022-12-07T13:06:25.649Z,10.38
2022-12-07T13:08:55.528Z,10.41
2022-12-07T13:11:36.605Z,10.13
2022-12-07T13:14:41.458Z,10.26
2022-12-07T13:17:33.659Z,10.23
2022-12-07T13:20:05.982Z,10.23
2022-12-07T13:22:32.771Z,10.08
2022-12-07T13:25:12.016Z,10.12
2022-12-07T13:27:42.169Z,10.17
2022-12-07T13:30:16.609Z,10.19
2022-12-07T13:32:43.966Z,10.01
2022-12-07T13:35:38.579Z,9.97
2022-12-07T13:38:16.172Z,10.04
2022-12-07T13:40:43.106Z,10.02
2022-12-07T13:43:16.363Z,10.00
2022-12-07T13:45:49.365Z,9.91
2022-12-07T13:48:49.965Z,9.94
2022-12-07T13:51:22.165Z,10.15
2022-12-07T13:53:51.816Z,10.17
2022-12-07T13:56:19.002Z,9.96
2022-12-07T13:58:46.110Z,9.96
2022-12-07T14:01:14.591Z,9.89
2022-12-07T14:03:41.627Z,9.76
2022-12-07T14:06:16.832Z,9.80
2022-12-07T14:08:44.731Z,9.78
2022-12-07T14:11:19.935Z,9.92
2022-12-07T14:14:03.217Z,9.82
2022-12-07T14:16:40.057Z,9.82
2022-12-07T14:19:48.646Z,9.95
2022-12-07T14:22:36.455Z,9.66
2022-12-07T14:25:17.784Z,9.60
2022-12-07T14:27:57.412Z,9.49
2022-12-07T14:30:29.688Z,9.63
2022-12-07T14:33:06.694Z,9.60
2022-12-07T14:35:34.017Z,9.69
2022-12-07T14:38:01.101Z,9.57
2022-12-07T14:40:29.948Z,9.39
2022-12-07T14:43:10.100Z,9.47
2022-12-07T14:45:37.020Z,9.50
2022-12-07T14:53:43.842Z,9.53
2022-12-07T14:56:10.810Z,9.53
2022-12-07T14:58:37.840Z,9.35
2022-12-07T15:01:04.918Z,9.50
2022-12-07T15:03:31.891Z,9.39
2022-12-07T15:05:59.225Z,9.29
2022-12-07T15:08:27.271Z,9.22
2022-12-07T15:10:54.369Z,9.02
2022-12-07T15:13:39.734Z,8.98
2022-12-07T15:16:09.418Z,8.85
2022-12-07T15:18:36.276Z,8.86
2022-12-07T15:21:04.095Z,8.91
2022-12-07T15:23:32.334Z,8.90
2022-12-07T15:25:59.267Z,8.84
2022-12-07T15:28:26.172Z,8.76
2022-12-07T15:30:53.130Z,8.69
2022-12-07T15:33:20.075Z,8.79
2022-12-07T15:35:47.116Z,8.92
2022-12-07T15:38:14.095Z,8.82
2022-12-07T15:40:41.803Z,8.78
2022-12-07T15:43:31.546Z,8.78
2022-12-07T15:45:58.586Z,8.76
2022-12-07T15:48:28.652Z,8.83
2022-12-07T15:51:04.517Z,8.70
2022-12-07T15:53:31.476Z,8.73
2022-12-07T15:55:58.338Z,8.75
2022-12-07T15:58:25.308Z,8.74
2022-12-07T16:00:52.211Z,8.67
2022-12-07T16:03:19.331Z,8.63
2022-12-07T16:05:53.455Z,8.68
2022-12-07T16:08:20.675Z,8.66
2022-12-07T16:10:47.793Z,8.65
2022-12-07T16:13:14.761Z,8.62
2022-12-07T16:15:42.845Z,8.62
2022-12-07T16:18:10.196Z,8.51
2022-12-07T16:20:37.063Z,8.45
2022-12-07T16:23:04.073Z,8.42
2022-12-07T16:25:30.912Z,8.41
2022-12-07T16:27:57.898Z,8.45
2022-12-07T16:30:24.802Z,8.56
2022-12-07T16:32:51.687Z,8.48
2022-12-07T16:35:18.760Z,8.50
2022-12-07T16:37:45.653Z,8.48
2022-12-07T16:40:13.191Z,8.52
2022-12-07T16:42:40.270Z,8.46
2022-12-07T16:45:07.558Z,8.40
2022-12-07T16:47:34.530Z,8.46
2022-12-07T16:50:01.351Z,8.43
2022-12-07T16:52:28.311Z,8.38
2022-12-07T16:54:55.169Z,8.43
2022-12-07T16:57:23.711Z,8.45
2022-12-07T16:59:52.456Z,8.38
2022-12-07T17:02:20.376Z,8.37
2022-12-07T17:04:47.262Z,8.42
2022-12-07T17:07:14.165Z,8.25
2022-12-07T17:09:41.121Z,8.19
2022-12-07T17:12:08.119Z,8.16
2022-12-07T17:14:53.827Z,8.18
2022-12-07T17:17:20.800Z,8.15
2022-12-07T17:19:47.716Z,8.10
2022-12-07T17:22:14.778Z,8.01
2022-12-07T17:24:42.160Z,7.95
2022-12-07T17:27:09.453Z,7.86
2022-12-07T17:29:36.420Z,7.88
2022-12-07T17:32:03.373Z,7.86
2022-12-07T17:34:30.443Z,7.82
2022-12-07T17:36:57.367Z,7.84
2022-12-07T17:39:24.249Z,7.87
2022-12-07T17:42:09.944Z,7.81
2022-12-07T17:44:36.878Z,7.82
2022-12-07T17:47:04.245Z,7.81
2022-12-07T17:49:31.554Z,7.95
2022-12-07T17:52:17.248Z,7.78
2022-12-07T17:54:44.578Z,7.79
2022-12-07T17:57:11.651Z,7.76
2022-12-07T17:59:39.055Z,7.69
2022-12-07T18:02:06.254Z,7.72
2022-12-07T18:04:33.872Z,7.74
2022-12-07T18:07:00.936Z,7.60
2022-12-07T18:09:27.877Z,7.64
2022-12-07T18:11:54.830Z,7.63
2022-12-07T18:14:21.875Z,7.59
2022-12-07T18:16:50.237Z,7.62
2022-12-07T18:19:17.580Z,7.56
2022-12-07T18:21:45.027Z,7.62
2022-12-07T18:24:13.857Z,7.60
2022-12-07T18:26:41.559Z,7.59
2022-12-07T18:29:10.769Z,7.50
2022-12-07T18:31:37.705Z,7.53
2022-12-07T18:34:12.278Z,7.54
2022-12-07T18:36:42.460Z,7.56
2022-12-07T18:39:09.957Z,7.60
2022-12-07T18:41:36.929Z,7.63
2022-12-07T18:44:05.263Z,7.61
2022-12-07T18:46:33.403Z,7.60
2022-12-07T18:49:00.819Z,7.64
2022-12-07T18:51:32.410Z,7.66
2022-12-07T18:54:04.898Z,7.68
2022-12-07T18:56:32.301Z,7.73
2022-12-07T18:59:20.312Z,7.72
2022-12-07T19:01:50.555Z,7.76
2022-12-07T19:04:18.256Z,7.82
2022-12-07T19:06:47.180Z,7.84
2022-12-07T19:09:14.668Z,7.86
2022-12-07T19:11:51.076Z,7.77
2022-12-07T19:14:28.797Z,7.89
2022-12-07T19:16:59.460Z,7.86
2022-12-07T19:19:37.554Z,7.89
2022-12-07T19:22:05.887Z,7.78
2022-12-07T19:24:33.502Z,7.86
2022-12-07T19:27:00.623Z,7.90
2022-12-07T19:29:31.410Z,8.00
2022-12-07T19:31:59.868Z,7.95
2022-12-07T19:34:27.274Z,8.04
2022-12-07T19:36:54.225Z,7.96
2022-12-07T19:39:21.434Z,7.91
2022-12-07T19:41:48.551Z,7.86
2022-12-07T19:44:17.910Z,7.77
2022-12-07T19:46:47.127Z,7.89
2022-12-07T19:49:16.278Z,7.75
2022-12-07T19:51:54.659Z,7.62
2022-12-07T19:54:23.813Z,7.67
2022-12-07T19:56:52.651Z,7.72
2022-12-07T19:59:21.959Z,7.61
2022-12-07T20:01:49.591Z,7.65
2022-12-07T20:04:20.276Z,7.67
2022-12-07T20:06:49.821Z,7.57
2022-12-07T20:09:17.504Z,7.52
2022-12-07T20:12:03.130Z,7.49
2022-12-07T20:14:30.590Z,7.44
2022-12-07T20:16:58.452Z,7.38
2022-12-07T20:19:25.556Z,7.38
2022-12-07T20:21:52.856Z,7.37
2022-12-07T20:24:22.825Z,7.28
2022-12-07T20:26:51.903Z,7.26
2022-12-07T20:29:22.098Z,7.27
2022-12-07T20:31:50.193Z,7.22
2022-12-07T20:34:17.829Z,7.27
2022-12-07T20:36:45.677Z,7.23
2022-12-07T20:39:12.817Z,7.33
2022-12-07T20:41:59.290Z,7.34
2022-12-07T20:44:26.372Z,7.44
2022-12-07T20:46:53.382Z,7.48
2022-12-07T20:49:20.576Z,7.31
2022-12-07T20:51:48.040Z,7.42
2022-12-07T20:54:15.240Z,7.41
2022-12-07T20:56:42.510Z,7.43
2022-12-07T20:59:13.871Z,7.46
2022-12-07T21:01:41.010Z,7.52
2022-12-07T21:04:08.232Z,7.55
2022-12-07T21:06:35.684Z,7.50
2022-12-07T21:09:02.676Z,7.57
2022-12-07T21:11:31.480Z,7.57
2022-12-07T21:13:58.704Z,7.57
2022-12-07T21:16:28.786Z,7.63
2022-12-07T21:18:57.334Z,7.58
2022-12-07T21:21:24.849Z,7.61
2022-12-07T21:23:58.097Z,7.73
2022-12-07T21:26:27.895Z,7.70
2022-12-07T21:28:56.020Z,7.83
2022-12-07T21:31:23.231Z,7.80
2022-12-07T21:33:50.527Z,7.92
2022-12-07T21:36:23.473Z,7.79
2022-12-07T21:38:51.167Z,7.77
2022-12-07T21:41:20.916Z,7.75
2022-12-07T21:43:48.560Z,7.78
2022-12-07T21:46:16.787Z,7.91
2022-12-07T21:48:44.341Z,7.96
2022-12-07T21:51:13.574Z,7.90
2022-12-07T21:53:42.127Z,7.94
2022-12-07T21:56:18.159Z,7.97
2022-12-07T21:58:45.867Z,8.05
2022-12-07T22:01:24.223Z,8.11
2022-12-07T22:03:52.138Z,8.13
2022-12-07T22:06:22.309Z,7.94
2022-12-07T22:08:50.601Z,8.01
2022-12-07T22:11:17.561Z,7.85
2022-12-07T22:14:09.880Z,7.68
2022-12-07T22:16:39.211Z,7.73
2022-12-07T22:19:07.374Z,7.80
2022-12-07T22:21:35.101Z,7.88
2022-12-07T22:24:03.280Z,7.91
2022-12-07T22:26:30.285Z,7.82
2022-12-07T22:28:57.233Z,7.70
2022-12-07T22:31:24.366Z,7.57
2022-12-07T22:33:51.794Z,7.63
2022-12-07T22:36:19.219Z,7.56
2022-12-07T22:38:47.165Z,7.68
2022-12-07T22:41:13.993Z,7.62
2022-12-07T22:43:40.885Z,7.58
2022-12-07T22:46:07.872Z,7.64
2022-12-07T22:48:34.926Z,7.87
2022-12-07T22:51:02.398Z,7.85
2022-12-07T22:53:29.652Z,7.80
2022-12-07T22:55:56.747Z,7.58
2022-12-07T22:58:23.897Z,7.60
2022-12-07T23:00:54.106Z,7.76
2022-12-07T23:03:21.146Z,7.96
2022-12-07T23:05:49.604Z,7.93
2022-12-07T23:08:18.109Z,7.81
2022-12-07T23:10:47.828Z,7.97
2022-12-07T23:13:33.010Z,7.89
2022-12-07T23:16:01.397Z,8.09
2022-12-07T23:18:31.007Z,8.13
2022-12-07T23:20:58.211Z,8.12
2022-12-07T23:23:25.861Z,8.04
2022-12-07T23:25:53.436Z,8.18
2022-12-07T23:28:20.438Z,8.09
2022-12-07T23:30:47.324Z,8.13
2022-12-07T23:33:14.393Z,8.02
2022-12-07T23:35:42.036Z,7.90
2022-12-07T23:38:08.932Z,7.84
2022-12-07T23:40:36.903Z,7.88
2022-12-07T23:43:03.827Z,7.83
2022-12-07T23:45:30.711Z,7.76
2022-12-07T23:47:57.562Z,7.70
2022-12-07T23:50:24.473Z,7.86
2022-12-07T23:52:51.348Z,7.73
2022-12-07T23:55:18.391Z,7.66
2022-12-07T23:57:45.340Z,7.73
